Time,TemperatureF,DewpointF,PressureIn,WindDirection,WindDirectionDegrees,WindSpeedMPH,WindSpeedGustMPH,Humidity,HourlyPrecipIn,Conditions,Clouds,dailyrainin,SoftwareType,DateUTC
2013-05-13 00:00:00,44.9,35.0,30.19,WNW,296,0.0,1.0,68,0.00,,,0.00,VWS V14.01,2013-05-13 05:00:00,
2013-05-13 00:03:00,42.0,35.3,30.19,WNW,296,0.0,0.0,77,0.00,,,0.00,VWS V14.01,2013-05-13 05:03:00,
2013-05-13 00:08:00,41.8,35.5,30.19,WNW,296,0.0,0.0,78,0.00,,,0.00,VWS V14.01,2013-05-13 05:08:00,
2013-05-13 00:13:00,41.6,35.3,30.19,WNW,296,0.0,0.0,78,0.00,,,0.00,VWS V14.01,2013-05-13 05:13:00,
2013-05-13 00:18:00,41.4,35.4,30.19,WNW,296,1.0,2.0,79,0.00,,,0.00,VWS V14.01,2013-05-13 05:18:00,
2013-05-13 00:23:00,41.2,35.5,30.19,WNW,296,0.0,2.0,80,0.00,,,0.00,VWS V14.01,2013-05-13 05:23:00,
2013-05-13 00:28:00,41.1,35.4,30.19,WNW,296,0.0,2.0,80,0.00,,,0.00,VWS V14.01,2013-05-13 05:28:00,
2013-05-13 00:30:00,43.4,35.7,30.19,WNW,296,0.0,2.0,74,0.00,,,0.00,VWS V14.01,2013-05-13 05:30:00,
2013-05-13 00:33:00,40.9,35.2,30.19,WNW,296,0.0,0.0,80,0.00,,,0.00,VWS V14.01,2013-05-13 05:33:00,
2013-05-13 00:38:00,40.7,35.3,30.19,WNW,296,0.0,0.0,81,0.00,,,0.00,VWS V14.01,2013-05-13 05:38:00,
2013-05-13 00:43:00,40.6,35.2,30.19,WNW,296,0.0,0.0,81,0.00,,,0.00,VWS V14.01,2013-05-13 05:43:00,
2013-05-13 00:48:00,40.5,35.5,30.19,WNW,296,1.0,2.0,82,0.00,,,0.00,VWS V14.01,2013-05-13 05:48:00,
2013-05-13 00:53:00,40.4,35.3,30.19,WNW,296,0.0,2.0,82,0.00,,,0.00,VWS V14.01,2013-05-13 05:53:00,
2013-05-13 00:58:00,40.3,35.2,30.19,WNW,296,0.0,2.0,82,0.00,,,0.00,VWS V14.01,2013-05-13 05:58:00,
2013-05-13 01:00:00,42.2,35.5,30.19,WNW,296,0.0,2.0,77,0.00,,,0.00,VWS V14.01,2013-05-13 06:00:00,
2013-05-13 01:03:00,40.2,35.2,30.19,WNW,296,0.0,0.0,82,0.00,,,0.00,VWS V14.01,2013-05-13 06:03:00,
2013-05-13 01:08:00,40.1,34.8,30.19,WNW,296,0.0,0.0,81,0.00,,,0.00,VWS V14.01,2013-05-13 06:08:00,
2013-05-13 01:13:00,40.1,35.1,30.19,WNW,296,0.0,2.0,82,0.00,,,0.00,VWS V14.01,2013-05-13 06:13:00,
2013-05-13 01:18:00,40.0,35.0,30.19,WNW,296,0.0,2.0,82,0.00,,,0.00,VWS V14.01,2013-05-13 06:18:00,
2013-05-13 01:23:00,39.9,34.9,30.19,WNW,296,0.0,2.0,82,0.00,,,0.00,VWS V14.01,2013-05-13 06:23:00,
2013-05-13 01:28:00,39.8,34.8,30.19,WNW,296,0.0,2.0,82,0.00,,,0.00,VWS V14.01,2013-05-13 06:28:00,
2013-05-13 01:30:00,41.0,35.3,30.19,WNW,296,0.0,2.0,80,0.00,,,0.00,VWS V14.01,2013-05-13 06:30:00,
2013-05-13 01:33:00,39.7,34.7,30.19,WNW,296,0.0,0.0,82,0.00,,,0.00,VWS V14.01,2013-05-13 06:33:00,
2013-05-13 01:38:00,39.5,34.5,30.19,WNW,296,0.0,0.0,82,0.00,,,0.00,VWS V14.01,2013-05-13 06:38:00,
2013-05-13 01:43:00,39.5,34.8,30.19,WNW,296,0.0,0.0,83,0.00,,,0.00,VWS V14.01,2013-05-13 06:43:00,
2013-05-13 01:48:00,39.3,34.6,30.19,WNW,296,1.0,2.0,83,0.00,,,0.00,VWS V14.01,2013-05-13 06:48:00,
2013-05-13 01:53:00,39.2,34.5,30.19,WNW,296,0.0,2.0,83,0.00,,,0.00,VWS V14.01,2013-05-13 06:53:00,
2013-05-13 01:58:00,39.2,34.5,30.19,WNW,296,0.0,2.0,83,0.00,,,0.00,VWS V14.01,2013-05-13 06:58:00,
2013-05-13 02:00:00,40.2,35.2,30.19,WNW,296,0.0,2.0,82,0.00,,,0.00,VWS V14.01,2013-05-13 07:00:00,
2013-05-13 02:03:00,39.1,34.4,30.19,WNW,296,1.0,2.0,83,0.00,,,0.00,VWS V14.01,2013-05-13 07:03:00,
2013-05-13 02:08:00,38.9,34.5,30.19,WNW,296,0.0,2.0,84,0.00,,,0.00,VWS V14.01,2013-05-13 07:08:00,
2013-05-13 02:13:00,38.8,34.4,30.19,WNW,296,0.0,2.0,84,0.00,,,0.00,VWS V14.01,2013-05-13 07:13:00,
2013-05-13 02:18:00,38.6,34.2,30.19,WNW,296,0.0,2.0,84,0.00,,,0.00,VWS V14.01,2013-05-13 07:18:00,
2013-05-13 02:23:00,38.5,34.1,30.19,WNW,296,0.0,2.0,84,0.00,,,0.00,VWS V14.01,2013-05-13 07:23:00,
2013-05-13 02:28:00,38.4,34.3,30.19,WNW,296,0.0,2.0,85,0.00,,,0.00,VWS V14.01,2013-05-13 07:28:00,
2013-05-13 02:30:00,39.7,35.0,30.19,WNW,296,0.0,2.0,83,0.00,,,0.00,VWS V14.01,2013-05-13 07:30:00,
2013-05-13 02:33:00,38.3,34.2,30.19,WNW,296,0.0,0.0,85,0.00,,,0.00,VWS V14.01,2013-05-13 07:33:00,
2013-05-13 02:38:00,38.2,34.1,30.19,WNW,296,0.0,0.0,85,0.00,,,0.00,VWS V14.01,2013-05-13 07:38:00,
2013-05-13 02:43:00,38.1,34.0,30.19,WNW,296,0.0,0.0,85,0.00,,,0.00,VWS V14.01,2013-05-13 07:43:00,
2013-05-13 02:48:00,38.0,33.9,30.19,WNW,296,0.0,0.0,85,0.00,,,0.00,VWS V14.01,2013-05-13 07:48:00,
2013-05-13 02:53:00,37.9,33.8,30.19,WNW,296,0.0,0.0,85,0.00,,,0.00,VWS V14.01,2013-05-13 07:53:00,
2013-05-13 02:58:00,37.9,33.8,30.19,WNW,296,0.0,0.0,85,0.00,,,0.00,VWS V14.01,2013-05-13 07:58:00,
2013-05-13 03:00:00,39.1,34.4,30.19,WNW,296,0.0,2.0,83,0.00,,,0.00,VWS V14.01,2013-05-13 08:00:00,
2013-05-13 03:03:00,37.9,33.8,30.19,WNW,296,0.0,0.0,85,0.00,,,0.00,VWS V14.01,2013-05-13 08:03:00,
2013-05-13 03:08:00,37.8,33.7,30.19,WNW,296,0.0,0.0,85,0.00,,,0.00,VWS V14.01,2013-05-13 08:08:00,
2013-05-13 03:13:00,37.7,33.6,30.19,WNW,296,0.0,0.0,85,0.00,,,0.00,VWS V14.01,2013-05-13 08:13:00,
2013-05-13 03:18:00,37.6,33.8,30.19,WNW,296,0.0,0.0,86,0.00,,,0.00,VWS V14.01,2013-05-13 08:18:00,
2013-05-13 03:23:00,37.5,33.7,30.19,WNW,296,0.0,0.0,86,0.00,,,0.00,VWS V14.01,2013-05-13 08:23:00,
2013-05-13 03:28:00,37.4,33.3,30.19,WNW,296,0.0,0.0,85,0.00,,,0.00,VWS V14.01,2013-05-13 08:28:00,
2013-05-13 03:30:00,38.4,34.3,30.19,WNW,296,0.0,2.0,85,0.00,,,0.00,VWS V14.01,2013-05-13 08:30:00,
2013-05-13 03:33:00,37.4,33.3,30.19,WNW,296,0.0,0.0,85,0.00,,,0.00,VWS V14.01,2013-05-13 08:33:00,
2013-05-13 03:38:00,37.4,33.6,30.19,WNW,296,0.0,0.0,86,0.00,,,0.00,VWS V14.01,2013-05-13 08:38:00,
2013-05-13 03:43:00,37.3,33.2,30.19,WNW,296,0.0,0.0,85,0.00,,,0.00,VWS V14.01,2013-05-13 08:43:00,
2013-05-13 03:48:00,37.3,33.2,30.19,WNW,296,0.0,0.0,85,0.00,,,0.00,VWS V14.01,2013-05-13 08:48:00,
2013-05-13 03:53:00,37.2,33.4,30.19,WNW,296,0.0,0.0,86,0.00,,,0.00,VWS V14.01,2013-05-13 08:53:00,
2013-05-13 03:58:00,37.2,33.4,30.18,WNW,296,0.0,0.0,86,0.00,,,0.00,VWS V14.01,2013-05-13 08:58:00,
2013-05-13 04:00:00,37.9,33.8,30.19,WNW,296,0.0,0.0,85,0.00,,,0.00,VWS V14.01,2013-05-13 09:00:00,
2013-05-13 04:03:00,37.1,33.3,30.19,WNW,296,0.0,0.0,86,0.00,,,0.00,VWS V14.01,2013-05-13 09:03:00,
2013-05-13 04:08:00,37.0,33.2,30.19,WNW,296,0.0,0.0,86,0.00,,,0.00,VWS V14.01,2013-05-13 09:08:00,
2013-05-13 04:13:00,36.9,33.1,30.19,WNW,296,0.0,0.0,86,0.00,,,0.00,VWS V14.01,2013-05-13 09:13:00,
2013-05-13 04:19:00,36.9,33.4,30.18,WNW,296,1.0,2.0,87,0.00,,,0.00,VWS V14.01,2013-05-13 09:19:00,
2013-05-13 04:24:00,36.9,33.1,30.19,WNW,296,0.0,2.0,86,0.00,,,0.00,VWS V14.01,2013-05-13 09:24:00,
2013-05-13 04:29:00,37.0,33.2,30.19,WNW,296,0.0,2.0,86,0.00,,,0.00,VWS V14.01,2013-05-13 09:29:00,
2013-05-13 04:30:00,37.4,33.6,30.19,WNW,296,0.0,0.0,86,0.00,,,0.00,VWS V14.01,2013-05-13 09:30:00,
2013-05-13 04:34:00,37.0,33.2,30.19,WNW,296,0.0,0.0,86,0.00,,,0.00,VWS V14.01,2013-05-13 09:34:00,
2013-05-13 04:39:00,37.0,33.2,30.19,WNW,296,0.0,0.0,86,0.00,,,0.00,VWS V14.01,2013-05-13 09:39:00,
2013-05-13 04:44:00,36.9,33.1,30.19,WNW,296,0.0,0.0,86,0.00,,,0.00,VWS V14.01,2013-05-13 09:44:00,
2013-05-13 04:49:00,36.8,33.0,30.19,WNW,296,0.0,0.0,86,0.00,,,0.00,VWS V14.01,2013-05-13 09:49:00,
2013-05-13 04:54:00,36.6,32.8,30.19,WNW,296,0.0,0.0,86,0.00,,,0.00,VWS V14.01,2013-05-13 09:54:00,
2013-05-13 04:59:00,36.5,32.7,30.19,WNW,296,0.0,0.0,86,0.00,,,0.00,VWS V14.01,2013-05-13 09:59:00,
2013-05-13 05:00:00,37.2,33.4,30.19,WNW,296,0.0,0.0,86,0.00,,,0.00,VWS V14.01,2013-05-13 10:00:00,
2013-05-13 05:04:00,36.4,32.6,30.19,WNW,296,0.0,0.0,86,0.00,,,0.00,VWS V14.01,2013-05-13 10:04:00,
2013-05-13 05:09:00,36.5,32.7,30.19,WNW,296,0.0,0.0,86,0.00,,,0.00,VWS V14.01,2013-05-13 10:09:00,
2013-05-13 05:14:00,36.4,32.6,30.19,WNW,296,0.0,0.0,86,0.00,,,0.00,VWS V14.01,2013-05-13 10:14:00,
2013-05-13 05:19:00,36.5,32.7,30.19,WNW,296,0.0,0.0,86,0.00,,,0.00,VWS V14.01,2013-05-13 10:19:00,
2013-05-13 05:24:00,36.5,32.7,30.19,WNW,296,0.0,0.0,86,0.00,,,0.00,VWS V14.01,2013-05-13 10:24:00,
2013-05-13 05:29:00,36.4,32.6,30.19,WNW,296,0.0,0.0,86,0.00,,,0.00,VWS V14.01,2013-05-13 10:29:00,
2013-05-13 05:30:00,37.0,33.2,30.19,WNW,296,0.0,2.0,86,0.00,,,0.00,VWS V14.01,2013-05-13 10:30:00,
2013-05-13 05:34:00,36.4,32.9,30.19,WNW,296,0.0,0.0,87,0.00,,,0.00,VWS V14.01,2013-05-13 10:34:00,
2013-05-13 05:39:00,36.3,32.8,30.19,WNW,296,0.0,0.0,87,0.00,,,0.00,VWS V14.01,2013-05-13 10:39:00,
2013-05-13 05:44:00,36.2,32.7,30.19,WNW,296,0.0,0.0,87,0.00,,,0.00,VWS V14.01,2013-05-13 10:44:00,
2013-05-13 05:49:00,36.1,32.6,30.19,WNW,296,1.0,1.0,87,0.00,,,0.00,VWS V14.01,2013-05-13 10:49:00,
2013-05-13 05:54:00,36.0,32.5,30.19,WNW,296,0.0,1.0,87,0.00,,,0.00,VWS V14.01,2013-05-13 10:54:00,
2013-05-13 05:59:00,36.0,32.5,30.19,WNW,296,0.0,1.0,87,0.00,,,0.00,VWS V14.01,2013-05-13 10:59:00,
2013-05-13 06:00:00,36.5,32.7,30.19,WNW,296,0.0,0.0,86,0.00,,,0.00,VWS V14.01,2013-05-13 11:00:00,
2013-05-13 06:04:00,36.0,32.5,30.19,WNW,296,0.0,2.0,87,0.00,,,0.00,VWS V14.01,2013-05-13 11:04:00,
2013-05-13 06:09:00,36.0,32.5,30.19,WNW,296,0.0,2.0,87,0.00,,,0.00,VWS V14.01,2013-05-13 11:09:00,
2013-05-13 06:14:00,36.0,32.5,30.20,WNW,296,0.0,2.0,87,0.00,,,0.00,VWS V14.01,2013-05-13 11:14:00,
2013-05-13 06:19:00,36.0,32.5,30.20,WNW,296,0.0,2.0,87,0.00,,,0.00,VWS V14.01,2013-05-13 11:19:00,
2013-05-13 06:24:00,36.0,32.5,30.20,WNW,296,0.0,2.0,87,0.00,,,0.00,VWS V14.01,2013-05-13 11:24:00,
2013-05-13 06:29:00,36.1,32.9,30.20,WNW,296,0.0,2.0,88,0.00,,,0.00,VWS V14.01,2013-05-13 11:29:00,
2013-05-13 06:30:00,36.4,32.6,30.19,WNW,296,0.0,0.0,86,0.00,,,0.00,VWS V14.01,2013-05-13 11:30:00,
2013-05-13 06:34:00,36.2,33.0,30.20,WNW,296,0.0,0.0,88,0.00,,,0.00,VWS V14.01,2013-05-13 11:34:00,
2013-05-13 06:39:00,36.4,33.2,30.20,WNW,296,0.0,0.0,88,0.00,,,0.00,VWS V14.01,2013-05-13 11:39:00,
2013-05-13 06:44:00,36.7,33.2,30.21,WNW,296,0.0,0.0,87,0.00,,,0.00,VWS V14.01,2013-05-13 11:44:00,
2013-05-13 06:49:00,37.0,33.8,30.21,WNW,296,0.0,0.0,88,0.00,,,0.00,VWS V14.01,2013-05-13 11:49:00,
2013-05-13 06:54:00,37.4,34.2,30.21,WNW,296,0.0,0.0,88,0.00,,,0.00,VWS V14.01,2013-05-13 11:54:00,
2013-05-13 06:59:00,37.9,34.4,30.21,WNW,296,1.0,1.0,87,0.00,,,0.00,VWS V14.01,2013-05-13 11:59:00,
2013-05-13 07:00:00,36.0,32.5,30.19,WNW,296,0.0,1.0,87,0.00,,,0.00,VWS V14.01,2013-05-13 12:00:00,
2013-05-13 07:04:00,38.7,35.2,30.21,WNW,296,2.0,2.0,87,0.00,,,0.00,VWS V14.01,2013-05-13 12:04:00,
2013-05-13 07:09:00,39.5,35.1,30.22,WNW,296,0.0,2.0,84,0.00,,,0.00,VWS V14.01,2013-05-13 12:09:00,
2013-05-13 07:14:00,40.4,35.7,30.22,WNW,296,0.0,2.0,83,0.00,,,0.00,VWS V14.01,2013-05-13 12:14:00,
2013-05-13 07:19:00,41.2,36.1,30.22,WNW,296,0.0,2.0,82,0.00,,,0.00,VWS V14.01,2013-05-13 12:19:00,
2013-05-13 07:24:00,42.0,36.3,30.22,WNW,296,0.0,2.0,80,0.00,,,0.00,VWS V14.01,2013-05-13 12:24:00,
2013-05-13 07:29:00,42.7,36.7,30.22,WNW,296,0.0,2.0,79,0.00,,,0.00,VWS V14.01,2013-05-13 12:29:00,
2013-05-13 07:30:00,36.1,32.9,30.20,WNW,296,0.0,2.0,88,0.00,,,0.00,VWS V14.01,2013-05-13 12:30:00,
2013-05-13 07:34:00,43.5,36.8,30.22,WNW,296,0.0,2.0,77,0.00,,,0.00,VWS V14.01,2013-05-13 12:34:00,
2013-05-13 07:39:00,44.5,37.1,30.22,WNW,296,0.0,2.0,75,0.00,,,0.00,VWS V14.01,2013-05-13 12:39:00,
2013-05-13 07:44:00,45.4,37.3,30.22,WNW,296,0.0,2.0,73,0.00,,,0.00,VWS V14.01,2013-05-13 12:44:00,
2013-05-13 07:49:00,46.4,37.2,30.22,WNW,296,0.0,2.0,70,0.00,,,0.00,VWS V14.01,2013-05-13 12:49:00,
2013-05-13 07:54:00,47.3,37.7,30.22,WNW,296,0.0,2.0,69,0.00,,,0.00,VWS V14.01,2013-05-13 12:54:00,
2013-05-13 07:59:00,48.2,38.2,30.22,WNW,296,0.0,2.0,68,0.00,,,0.00,VWS V14.01,2013-05-13 12:59:00,
2013-05-13 08:00:00,38.1,34.6,30.21,WNW,296,1.0,2.0,87,0.00,,,0.00,VWS V14.01,2013-05-13 13:00:00,
2013-05-13 08:04:00,49.2,38.3,30.22,WNW,296,0.0,2.0,66,0.00,,,0.00,VWS V14.01,2013-05-13 13:04:00,
2013-05-13 08:09:00,50.2,37.7,30.22,WNW,296,0.0,4.0,62,0.00,,,0.00,VWS V14.01,2013-05-13 13:09:00,
2013-05-13 08:14:00,51.1,38.5,30.22,WNW,296,1.0,5.0,62,0.00,,,0.00,VWS V14.01,2013-05-13 13:14:00,
2013-05-13 08:19:00,51.9,38.0,30.22,WNW,293,0.0,5.0,59,0.00,,,0.00,VWS V14.01,2013-05-13 13:19:00,
2013-05-13 08:24:00,52.6,37.8,30.22,WNW,285,0.0,5.0,57,0.00,,,0.00,VWS V14.01,2013-05-13 13:24:00,
2013-05-13 08:29:00,53.2,37.0,30.22,WNW,284,1.0,5.0,54,0.00,,,0.00,VWS V14.01,2013-05-13 13:29:00,
2013-05-13 08:30:00,42.9,36.8,30.22,WNW,296,0.0,2.0,79,0.00,,,0.00,VWS V14.01,2013-05-13 13:30:00,
2013-05-13 08:34:00,53.8,38.5,30.22,WNW,284,0.0,1.0,56,0.00,,,0.00,VWS V14.01,2013-05-13 13:34:00,
2013-05-13 08:39:00,54.2,38.9,30.22,WNW,284,0.0,1.0,56,0.00,,,0.00,VWS V14.01,2013-05-13 13:39:00,
2013-05-13 08:44:00,54.7,39.3,30.22,WNW,285,0.0,2.0,56,0.00,,,0.00,VWS V14.01,2013-05-13 13:44:00,
2013-05-13 08:49:00,55.3,38.0,30.22,West,275,0.0,4.0,52,0.00,,,0.00,VWS V14.01,2013-05-13 13:49:00,
2013-05-13 08:54:00,56.0,38.2,30.23,West,275,1.0,4.0,51,0.00,,,0.00,VWS V14.01,2013-05-13 13:54:00,
2013-05-13 08:59:00,56.6,37.2,30.22,West,261,0.0,5.0,48,0.00,,,0.00,VWS V14.01,2013-05-13 13:59:00,
2013-05-13 09:00:00,48.4,38.0,30.22,WNW,296,2.0,2.0,67,0.00,,,0.00,VWS V14.01,2013-05-13 14:00:00,
2013-05-13 09:04:00,57.2,37.7,30.22,West,263,1.0,3.0,48,0.00,,,0.00,VWS V14.01,2013-05-13 14:04:00,
2013-05-13 09:09:00,57.8,38.8,30.22,West,263,0.0,4.0,49,0.00,,,0.00,VWS V14.01,2013-05-13 14:09:00,
2013-05-13 09:14:00,58.4,36.6,30.22,WNW,285,2.0,6.0,44,0.00,,,0.00,VWS V14.01,2013-05-13 14:14:00,
2013-05-13 09:19:00,58.8,38.1,30.22,West,264,2.0,7.0,46,0.00,,,0.00,VWS V14.01,2013-05-13 14:19:00,
2013-05-13 09:24:00,59.2,36.7,30.22,West,260,0.0,7.0,43,0.00,,,0.00,VWS V14.01,2013-05-13 14:24:00,
2013-05-13 09:29:00,59.7,37.8,30.22,WSW,246,1.0,8.0,44,0.00,,,0.00,VWS V14.01,2013-05-13 14:29:00,
2013-05-13 09:30:00,53.3,37.6,30.22,WNW,284,0.0,5.0,55,0.00,,,0.00,VWS V14.01,2013-05-13 14:30:00,
2013-05-13 09:34:00,60.0,38.0,30.22,WSW,242,2.0,4.0,44,0.00,,,0.00,VWS V14.01,2013-05-13 14:34:00,
2013-05-13 09:39:00,60.4,37.2,30.22,West,261,5.0,5.0,42,0.00,,,0.00,VWS V14.01,2013-05-13 14:39:00,
2013-05-13 09:44:00,60.7,35.6,30.21,West,272,2.0,7.0,39,0.00,,,0.00,VWS V14.01,2013-05-13 14:44:00,
2013-05-13 09:49:00,61.0,35.9,30.22,West,275,1.0,7.0,39,0.00,,,0.00,VWS V14.01,2013-05-13 14:49:00,
2013-05-13 09:54:00,61.4,34.9,30.22,WNW,289,0.0,7.0,37,0.00,,,0.00,VWS V14.01,2013-05-13 14:54:00,
2013-05-13 09:59:00,61.9,36.0,30.22,West,259,0.0,7.0,38,0.00,,,0.00,VWS V14.01,2013-05-13 14:59:00,
2013-05-13 10:00:00,56.7,37.8,30.22,West,261,0.0,5.0,49,0.00,,,0.00,VWS V14.01,2013-05-13 15:00:00,
2013-05-13 10:04:00,62.4,35.8,30.21,West,279,1.0,4.0,37,0.00,,,0.00,VWS V14.01,2013-05-13 15:04:00,
2013-05-13 10:09:00,62.7,36.8,30.22,West,262,0.0,6.0,38,0.00,,,0.00,VWS V14.01,2013-05-13 15:09:00,
2013-05-13 10:15:00,63.1,37.8,30.21,West,279,1.0,6.0,39,0.00,,,0.00,VWS V14.01,2013-05-13 15:15:00,
2013-05-13 10:20:00,63.2,35.1,30.21,WSW,238,0.0,6.0,35,0.00,,,0.00,VWS V14.01,2013-05-13 15:20:00,
2013-05-13 10:25:00,63.4,35.3,30.21,WNW,288,4.0,6.0,35,0.00,,,0.00,VWS V14.01,2013-05-13 15:25:00,
2013-05-13 10:30:00,63.8,37.0,30.21,WSW,246,4.0,7.0,37,0.00,,,0.00,VWS V14.01,2013-05-13 15:30:00,
2013-05-13 10:35:00,64.0,35.1,30.21,WSW,249,0.0,6.0,34,0.00,,,0.00,VWS V14.01,2013-05-13 15:35:00,
2013-05-13 10:40:00,64.0,37.2,30.21,WNW,283,0.0,6.0,37,0.00,,,0.00,VWS V14.01,2013-05-13 15:40:00,
2013-05-13 10:45:00,64.4,33.9,30.21,WSW,254,0.0,6.0,32,0.00,,,0.00,VWS V14.01,2013-05-13 15:45:00,
2013-05-13 10:50:00,64.7,35.7,30.21,West,262,2.0,6.0,34,0.00,,,0.00,VWS V14.01,2013-05-13 15:50:00,
2013-05-13 10:55:00,64.6,34.9,30.21,WSW,257,3.0,6.0,33,0.00,,,0.00,VWS V14.01,2013-05-13 15:55:00,
2013-05-13 11:00:00,64.4,34.7,30.21,WNW,289,0.0,7.0,33,0.00,,,0.00,VWS V14.01,2013-05-13 16:00:00,
2013-05-13 11:05:00,64.4,33.9,30.21,WNW,289,0.0,5.0,32,0.00,,,0.00,VWS V14.01,2013-05-13 16:05:00,
2013-05-13 11:10:00,65.2,36.2,30.21,SE,130,0.0,5.0,34,0.00,,,0.00,VWS V14.01,2013-05-13 16:10:00,
2013-05-13 11:15:00,65.9,36.8,30.21,ESE,119,2.0,5.0,34,0.00,,,0.00,VWS V14.01,2013-05-13 16:15:00,
2013-05-13 11:20:00,66.4,39.4,30.21,ESE,111,0.0,5.0,37,0.00,,,0.00,VWS V14.01,2013-05-13 16:20:00,
2013-05-13 11:25:00,66.6,35.8,30.21,West,271,2.0,5.0,32,0.00,,,0.00,VWS V14.01,2013-05-13 16:25:00,
2013-05-13 11:30:00,66.6,35.8,30.21,SSW,209,0.0,5.0,32,0.00,,,0.00,VWS V14.01,2013-05-13 16:30:00,
2013-05-13 11:35:00,66.6,35.8,30.20,West,269,0.0,5.0,32,0.00,,,0.00,VWS V14.01,2013-05-13 16:35:00,
2013-05-13 11:40:00,66.7,34.3,30.20,West,267,0.0,5.0,30,0.00,,,0.00,VWS V14.01,2013-05-13 16:40:00,
2013-05-13 11:45:00,67.1,37.8,30.20,West,267,3.0,5.0,34,0.00,,,0.00,VWS V14.01,2013-05-13 16:45:00,
2013-05-13 11:50:00,67.5,35.8,30.20,ESE,102,4.0,5.0,31,0.00,,,0.00,VWS V14.01,2013-05-13 16:50:00,
2013-05-13 11:55:00,68.1,34.7,30.20,SSW,192,0.0,5.0,29,0.00,,,0.00,VWS V14.01,2013-05-13 16:55:00,
2013-05-13 12:00:00,68.5,37.5,30.20,West,261,0.0,0.0,32,0.00,,,0.00,VWS V14.01,2013-05-13 17:00:00,
2013-05-13 12:05:00,68.2,33.9,30.20,WNW,283,4.0,5.0,28,0.00,,,0.00,VWS V14.01,2013-05-13 17:05:00,
2013-05-13 12:10:00,67.6,35.9,30.19,WNW,298,1.0,7.0,31,0.00,,,0.00,VWS V14.01,2013-05-13 17:10:00,
2013-05-13 12:15:00,67.3,38.0,30.19,WNW,284,0.0,7.0,34,0.00,,,0.00,VWS V14.01,2013-05-13 17:15:00,
2013-05-13 12:20:00,67.5,37.4,30.19,West,262,3.0,7.0,33,0.00,,,0.00,VWS V14.01,2013-05-13 17:20:00,
2013-05-13 12:25:00,67.6,39.0,30.19,SSW,196,0.0,7.0,35,0.00,,,0.00,VWS V14.01,2013-05-13 17:25:00,
2013-05-13 12:30:00,67.9,36.2,30.19,SE,128,2.0,4.0,31,0.00,,,0.00,VWS V14.01,2013-05-13 17:30:00,
2013-05-13 12:35:00,68.6,38.4,30.19,South,182,0.0,6.0,33,0.00,,,0.00,VWS V14.01,2013-05-13 17:35:00,
2013-05-13 12:40:00,69.4,36.7,30.18,SSE,163,1.0,7.0,30,0.00,,,0.00,VWS V14.01,2013-05-13 17:40:00,
2013-05-13 12:45:00,69.2,37.3,30.18,WSW,240,2.0,8.0,31,0.00,,,0.00,VWS V14.01,2013-05-13 17:45:00,
2013-05-13 12:50:00,69.0,36.3,30.18,WSW,248,2.0,8.0,30,0.00,,,0.00,VWS V14.01,2013-05-13 17:50:00,
2013-05-13 12:55:00,69.0,36.3,30.17,SSE,154,5.0,8.0,30,0.00,,,0.00,VWS V14.01,2013-05-13 17:55:00,
2013-05-13 13:00:00,69.2,37.3,30.17,ESE,123,2.0,5.0,31,0.00,,,0.00,VWS V14.01,2013-05-13 18:00:00,
2013-05-13 13:05:00,69.7,37.7,30.17,ESE,103,5.0,8.0,31,0.00,,,0.00,VWS V14.01,2013-05-13 18:05:00,
2013-05-13 13:10:00,70.0,36.3,30.17,WNW,292,4.0,8.0,29,0.00,,,0.00,VWS V14.01,2013-05-13 18:10:00,
2013-05-13 13:15:00,69.9,37.9,30.17,West,268,1.0,8.0,31,0.00,,,0.00,VWS V14.01,2013-05-13 18:15:00,
2013-05-13 13:20:00,70.1,38.9,30.16,South,173,1.0,8.0,32,0.00,,,0.00,VWS V14.01,2013-05-13 18:20:00,
2013-05-13 13:25:00,70.5,40.0,30.16,SSW,205,2.0,8.0,33,0.00,,,0.00,VWS V14.01,2013-05-13 18:25:00,
2013-05-13 13:30:00,70.7,38.6,30.16,WNW,288,2.0,5.0,31,0.00,,,0.00,VWS V14.01,2013-05-13 18:30:00,
2013-05-13 13:35:00,70.6,39.3,30.15,WNW,285,2.0,5.0,32,0.00,,,0.00,VWS V14.01,2013-05-13 18:35:00,
2013-05-13 13:40:00,70.9,41.9,30.15,WSW,244,0.0,6.0,35,0.00,,,0.00,VWS V14.01,2013-05-13 18:40:00,
2013-05-13 13:45:00,71.3,38.3,30.14,WSW,252,0.0,6.0,30,0.00,,,0.00,VWS V14.01,2013-05-13 18:45:00,
2013-05-13 13:50:00,71.2,38.2,30.15,ESE,110,4.0,6.0,30,0.00,,,0.00,VWS V14.01,2013-05-13 18:50:00,
2013-05-13 13:55:00,71.5,39.3,30.14,SSE,165,0.0,6.0,31,0.00,,,0.00,VWS V14.01,2013-05-13 18:55:00,
2013-05-13 14:00:00,71.9,42.8,30.14,SSE,151,0.0,0.0,35,0.00,,,0.00,VWS V14.01,2013-05-13 19:00:00,
2013-05-13 14:05:00,72.0,36.2,30.14,ESE,107,0.0,5.0,27,0.00,,,0.00,VWS V14.01,2013-05-13 19:05:00,
2013-05-13 14:10:00,71.9,37.1,30.14,East,98,0.0,5.0,28,0.00,,,0.00,VWS V14.01,2013-05-13 19:10:00,
2013-05-13 14:15:00,71.9,39.7,30.14,West,279,4.0,5.0,31,0.00,,,0.00,VWS V14.01,2013-05-13 19:15:00,
2013-05-13 14:20:00,71.7,39.5,30.14,SW,234,2.0,6.0,31,0.00,,,0.00,VWS V14.01,2013-05-13 19:20:00,
2013-05-13 14:25:00,71.3,39.1,30.14,WNW,291,0.0,7.0,31,0.00,,,0.00,VWS V14.01,2013-05-13 19:25:00,
2013-05-13 14:30:00,71.4,40.8,30.14,South,180,3.0,3.0,33,0.00,,,0.00,VWS V14.01,2013-05-13 19:30:00,
2013-05-13 14:35:00,71.6,37.7,30.13,West,269,0.0,5.0,29,0.00,,,0.00,VWS V14.01,2013-05-13 19:35:00,
2013-05-13 14:40:00,71.5,38.5,30.13,West,263,0.0,8.0,30,0.00,,,0.00,VWS V14.01,2013-05-13 19:40:00,
2013-05-13 14:45:00,71.5,38.5,30.13,WSW,252,1.0,8.0,30,0.00,,,0.00,VWS V14.01,2013-05-13 19:45:00,
2013-05-13 14:50:00,71.7,41.9,30.13,South,190,3.0,8.0,34,0.00,,,0.00,VWS V14.01,2013-05-13 19:50:00,
2013-05-13 14:55:00,71.9,39.7,30.13,West,272,0.0,8.0,31,0.00,,,0.00,VWS V14.01,2013-05-13 19:55:00,
2013-05-13 15:00:00,72.0,38.9,30.13,WNW,290,0.0,2.0,30,0.00,,,0.00,VWS V14.01,2013-05-13 20:00:00,
2013-05-13 15:05:00,71.7,43.3,30.12,WNW,284,0.0,7.0,36,0.00,,,0.00,VWS V14.01,2013-05-13 20:05:00,
2013-05-13 15:10:00,71.7,38.6,30.12,West,275,4.0,7.0,30,0.00,,,0.00,VWS V14.01,2013-05-13 20:10:00,
2013-05-13 15:15:00,71.5,36.7,30.11,West,268,0.0,7.0,28,0.00,,,0.00,VWS V14.01,2013-05-13 20:15:00,
2013-05-13 15:20:00,71.7,39.5,30.11,West,281,0.0,7.0,31,0.00,,,0.00,VWS V14.01,2013-05-13 20:20:00,
2013-05-13 15:25:00,72.1,37.2,30.10,West,281,0.0,7.0,28,0.00,,,0.00,VWS V14.01,2013-05-13 20:25:00,
2013-05-13 15:30:00,72.4,37.5,30.10,WSW,252,0.0,0.0,28,0.00,,,0.00,VWS V14.01,2013-05-13 20:30:00,
2013-05-13 15:36:00,72.6,37.7,30.10,SSE,149,0.0,4.0,28,0.00,,,0.00,VWS V14.01,2013-05-13 20:36:00,
2013-05-13 15:41:00,73.1,37.2,30.10,SW,225,0.0,4.0,27,0.00,,,0.00,VWS V14.01,2013-05-13 20:41:00,
2013-05-13 15:46:00,73.3,37.3,30.10,ESE,103,2.0,8.0,27,0.00,,,0.00,VWS V14.01,2013-05-13 20:46:00,
2013-05-13 15:51:00,73.1,36.2,30.10,ESE,106,0.0,8.0,26,0.00,,,0.00,VWS V14.01,2013-05-13 20:51:00,
2013-05-13 15:56:00,73.3,41.7,30.09,ESE,107,0.0,8.0,32,0.00,,,0.00,VWS V14.01,2013-05-13 20:56:00,
2013-05-13 16:00:00,72.0,38.9,30.13,WNW,290,2.0,8.0,30,0.00,,,0.00,VWS V14.01,2013-05-13 21:00:00,
2013-05-13 16:01:00,73.6,36.6,30.09,SSE,160,2.0,2.0,26,0.00,,,0.00,VWS V14.01,2013-05-13 21:01:00,
2013-05-13 16:06:00,73.8,37.8,30.08,West,259,4.0,6.0,27,0.00,,,0.00,VWS V14.01,2013-05-13 21:06:00,
2013-05-13 16:11:00,73.5,40.2,30.09,WNW,288,4.0,6.0,30,0.00,,,0.00,VWS V14.01,2013-05-13 21:11:00,
2013-05-13 16:16:00,73.2,37.2,30.08,WNW,284,0.0,6.0,27,0.00,,,0.00,VWS V14.01,2013-05-13 21:16:00,
2013-05-13 16:21:00,73.3,40.0,30.08,West,273,0.0,6.0,30,0.00,,,0.00,VWS V14.01,2013-05-13 21:21:00,
2013-05-13 16:26:00,73.5,35.6,30.08,South,188,0.0,6.0,25,0.00,,,0.00,VWS V14.01,2013-05-13 21:26:00,
2013-05-13 16:30:00,72.4,37.5,30.10,WSW,252,0.0,7.0,28,0.00,,,0.00,VWS V14.01,2013-05-13 21:30:00,
2013-05-13 16:31:00,73.8,38.7,30.08,SW,233,5.0,6.0,28,0.00,,,0.00,VWS V14.01,2013-05-13 21:31:00,
2013-05-13 16:36:00,73.9,35.9,30.08,South,177,0.0,7.0,25,0.00,,,0.00,VWS V14.01,2013-05-13 21:36:00,
2013-05-13 16:41:00,74.0,36.0,30.07,SE,138,2.0,7.0,25,0.00,,,0.00,VWS V14.01,2013-05-13 21:41:00,
2013-05-13 16:46:00,74.0,37.0,30.07,SSE,148,6.0,8.0,26,0.00,,,0.00,VWS V14.01,2013-05-13 21:46:00,
2013-05-13 16:51:00,74.0,36.0,30.07,East,85,2.0,8.0,25,0.00,,,0.00,VWS V14.01,2013-05-13 21:51:00,
2013-05-13 16:56:00,74.1,36.1,30.07,SE,144,0.0,8.0,25,0.00,,,0.00,VWS V14.01,2013-05-13 21:56:00,
2013-05-13 17:00:00,73.5,35.6,30.09,SSE,160,0.0,8.0,25,0.00,,,0.00,VWS V14.01,2013-05-13 22:00:00,
2013-05-13 17:01:00,74.2,36.2,30.08,WSW,240,0.0,2.0,25,0.00,,,0.00,VWS V14.01,2013-05-13 22:01:00,
2013-05-13 17:06:00,74.2,38.1,30.07,SE,137,0.0,5.0,27,0.00,,,0.00,VWS V14.01,2013-05-13 22:06:00,
2013-05-13 17:11:00,74.3,37.2,30.07,ESE,115,5.0,7.0,26,0.00,,,0.00,VWS V14.01,2013-05-13 22:11:00,
2013-05-13 17:16:00,74.2,37.1,30.07,ESE,114,0.0,7.0,26,0.00,,,0.00,VWS V14.01,2013-05-13 22:16:00,
2013-05-13 17:21:00,74.3,38.2,30.06,WSW,252,2.0,7.0,27,0.00,,,0.00,VWS V14.01,2013-05-13 22:21:00,
2013-05-13 17:26:00,74.4,36.3,30.06,East,86,2.0,7.0,25,0.00,,,0.00,VWS V14.01,2013-05-13 22:26:00,
2013-05-13 17:30:00,73.8,40.5,30.08,South,190,0.0,6.0,30,0.00,,,0.00,VWS V14.01,2013-05-13 22:30:00,
2013-05-13 17:31:00,74.4,37.3,30.06,ESE,103,5.0,5.0,26,0.00,,,0.00,VWS V14.01,2013-05-13 22:31:00,
2013-05-13 17:36:00,74.3,42.6,30.06,WSW,248,3.0,5.0,32,0.00,,,0.00,VWS V14.01,2013-05-13 22:36:00,
2013-05-13 17:41:00,74.4,38.3,30.06,WSW,252,0.0,5.0,27,0.00,,,0.00,VWS V14.01,2013-05-13 22:41:00,
2013-05-13 17:46:00,74.4,39.2,30.06,SSE,157,0.0,7.0,28,0.00,,,0.00,VWS V14.01,2013-05-13 22:46:00,
2013-05-13 17:51:00,74.5,39.3,30.06,SSE,167,0.0,7.0,28,0.00,,,0.00,VWS V14.01,2013-05-13 22:51:00,
2013-05-13 17:56:00,74.5,40.2,30.05,East,90,0.0,7.0,29,0.00,,,0.00,VWS V14.01,2013-05-13 22:56:00,
2013-05-13 18:00:00,74.2,35.1,30.07,WSW,240,1.0,8.0,24,0.00,,,0.00,VWS V14.01,2013-05-13 23:00:00,
2013-05-13 18:01:00,74.5,40.2,30.05,WSW,246,0.0,1.0,29,0.00,,,0.00,VWS V14.01,2013-05-13 23:01:00,
2013-05-13 18:06:00,74.5,41.9,30.06,SE,141,0.0,3.0,31,0.00,,,0.00,VWS V14.01,2013-05-13 23:06:00,
2013-05-13 18:11:00,74.4,41.8,30.05,WSW,256,0.0,3.0,31,0.00,,,0.00,VWS V14.01,2013-05-13 23:11:00,
2013-05-13 18:16:00,74.3,42.6,30.05,West,264,0.0,3.0,32,0.00,,,0.00,VWS V14.01,2013-05-13 23:16:00,
2013-05-13 18:21:00,74.2,39.9,30.05,NW,311,1.0,6.0,29,0.00,,,0.00,VWS V14.01,2013-05-13 23:21:00,
2013-05-13 18:26:00,74.1,40.7,30.05,WNW,284,0.0,6.0,30,0.00,,,0.00,VWS V14.01,2013-05-13 23:26:00,
2013-05-13 18:30:00,74.4,37.3,30.06,ESE,116,0.0,7.0,26,0.00,,,0.00,VWS V14.01,2013-05-13 23:30:00,
2013-05-13 18:31:00,73.9,39.7,30.05,SE,141,0.0,0.0,29,0.00,,,0.00,VWS V14.01,2013-05-13 23:31:00,
2013-05-13 18:36:00,73.7,40.4,30.04,ESE,107,0.0,4.0,30,0.00,,,0.00,VWS V14.01,2013-05-13 23:36:00,
2013-05-13 18:41:00,73.4,40.1,30.04,ESE,107,0.0,4.0,30,0.00,,,0.00,VWS V14.01,2013-05-13 23:41:00,
2013-05-13 18:46:00,73.2,40.8,30.03,SSE,161,0.0,8.0,31,0.00,,,0.00,VWS V14.01,2013-05-13 23:46:00,
2013-05-13 18:51:00,73.1,41.5,30.03,ENE,77,0.0,8.0,32,0.00,,,0.00,VWS V14.01,2013-05-13 23:51:00,
2013-05-13 18:56:00,73.0,43.8,30.03,SE,127,0.0,8.0,35,0.00,,,0.00,VWS V14.01,2013-05-13 23:56:00,
2013-05-13 19:00:00,74.5,40.2,30.05,WSW,246,0.0,7.0,29,0.00,,,0.00,VWS V14.01,2013-05-14 00:00:00,
2013-05-13 19:01:00,73.1,43.1,30.03,SW,219,0.0,0.0,34,0.00,,,0.00,VWS V14.01,2013-05-14 00:01:00,
2013-05-13 19:06:00,72.9,42.9,30.03,SE,133,0.0,4.0,34,0.00,,,0.00,VWS V14.01,2013-05-14 00:06:00,
2013-05-13 19:11:00,72.7,43.5,30.03,SE,132,2.0,4.0,35,0.00,,,0.00,VWS V14.01,2013-05-14 00:11:00,
2013-05-13 19:16:00,72.5,44.8,30.03,ESE,118,0.0,4.0,37,0.00,,,0.00,VWS V14.01,2013-05-14 00:16:00,
2013-05-13 19:21:00,72.1,43.7,30.03,SE,134,0.0,5.0,36,0.00,,,0.00,VWS V14.01,2013-05-14 00:21:00,
2013-05-13 19:26:00,71.7,43.3,30.03,SE,134,0.0,5.0,36,0.00,,,0.00,VWS V14.01,2013-05-14 00:26:00,
2013-05-13 19:30:00,73.9,39.7,30.05,SE,141,0.0,6.0,29,0.00,,,0.00,VWS V14.01,2013-05-14 00:30:00,
2013-05-13 19:31:00,71.3,43.7,30.03,SE,127,0.0,0.0,37,0.00,,,0.00,VWS V14.01,2013-05-14 00:31:00,
2013-05-13 19:36:00,70.9,44.0,30.03,SE,127,0.0,0.0,38,0.00,,,0.00,VWS V14.01,2013-05-14 00:36:00,
2013-05-13 19:41:00,70.5,43.7,30.03,SE,126,0.0,2.0,38,0.00,,,0.00,VWS V14.01,2013-05-14 00:41:00,
2013-05-13 19:46:00,70.2,44.1,30.03,SE,126,0.0,2.0,39,0.00,,,0.00,VWS V14.01,2013-05-14 00:46:00,
2013-05-13 19:51:00,69.9,43.8,30.03,SE,126,0.0,2.0,39,0.00,,,0.00,VWS V14.01,2013-05-14 00:51:00,
2013-05-13 19:56:00,69.5,44.2,30.03,SE,126,0.0,2.0,40,0.00,,,0.00,VWS V14.01,2013-05-14 00:56:00,
2013-05-13 20:00:00,73.1,42.3,30.03,SW,219,0.0,8.0,33,0.00,,,0.00,VWS V14.01,2013-05-14 01:00:00,
2013-05-13 20:01:00,69.0,45.0,30.03,SE,126,0.0,0.0,42,0.00,,,0.00,VWS V14.01,2013-05-14 01:01:00,
2013-05-13 20:06:00,68.4,46.2,30.02,SE,126,0.0,0.0,45,0.00,,,0.00,VWS V14.01,2013-05-14 01:06:00,
2013-05-13 20:11:00,67.9,45.8,30.02,SE,126,0.0,0.0,45,0.00,,,0.00,VWS V14.01,2013-05-14 01:11:00,
2013-05-13 20:16:00,67.3,47.0,30.02,SE,126,0.0,0.0,48,0.00,,,0.00,VWS V14.01,2013-05-14 01:16:00,
2013-05-13 20:21:00,66.7,46.4,30.02,SE,126,0.0,0.0,48,0.00,,,0.00,VWS V14.01,2013-05-14 01:21:00,
2013-05-13 20:26:00,66.2,47.6,30.02,SE,126,0.0,0.0,51,0.00,,,0.00,VWS V14.01,2013-05-14 01:26:00,
2013-05-13 20:30:00,71.4,44.5,30.03,SE,127,0.0,5.0,38,0.00,,,0.00,VWS V14.01,2013-05-14 01:30:00,
2013-05-13 20:31:00,65.5,46.4,30.02,SE,126,1.0,1.0,50,0.00,,,0.00,VWS V14.01,2013-05-14 01:31:00,
2013-05-13 20:36:00,64.9,46.9,30.02,SE,126,0.0,1.0,52,0.00,,,0.00,VWS V14.01,2013-05-14 01:36:00,
2013-05-13 20:41:00,64.4,44.8,30.02,SE,126,0.0,1.0,49,0.00,,,0.00,VWS V14.01,2013-05-14 01:41:00,
2013-05-13 20:46:00,64.1,44.0,30.02,SE,124,0.0,4.0,48,0.00,,,0.00,VWS V14.01,2013-05-14 01:46:00,
2013-05-13 20:51:00,64.1,44.0,30.02,SE,124,0.0,4.0,48,0.00,,,0.00,VWS V14.01,2013-05-14 01:51:00,
2013-05-13 20:56:00,64.0,43.9,30.02,ESE,123,0.0,4.0,48,0.00,,,0.00,VWS V14.01,2013-05-14 01:56:00,
2013-05-13 21:00:00,69.1,45.7,30.02,SE,126,0.0,2.0,43,0.00,,,0.00,VWS V14.01,2013-05-14 02:00:00,
2013-05-13 21:01:00,63.9,43.8,30.02,ESE,123,0.0,0.0,48,0.00,,,0.00,VWS V14.01,2013-05-14 02:01:00,
2013-05-13 21:06:00,63.8,43.8,30.02,ESE,123,0.0,0.0,48,0.00,,,0.00,VWS V14.01,2013-05-14 02:06:00,
2013-05-13 21:11:00,63.6,43.6,30.02,ESE,123,0.0,0.0,48,0.00,,,0.00,VWS V14.01,2013-05-14 02:11:00,
2013-05-13 21:16:00,63.5,43.5,30.02,ESE,123,0.0,0.0,48,0.00,,,0.00,VWS V14.01,2013-05-14 02:16:00,
2013-05-13 21:21:00,63.2,43.7,30.02,ESE,123,2.0,2.0,49,0.00,,,0.00,VWS V14.01,2013-05-14 02:21:00,
2013-05-13 21:26:00,63.0,44.1,30.02,ESE,123,0.0,2.0,50,0.00,,,0.00,VWS V14.01,2013-05-14 02:26:00,
2013-05-13 21:30:00,65.7,47.1,30.02,SE,126,0.0,0.0,51,0.00,,,0.00,VWS V14.01,2013-05-14 02:30:00,
2013-05-13 21:31:00,62.9,44.5,30.02,ESE,123,0.0,1.0,51,0.00,,,0.00,VWS V14.01,2013-05-14 02:31:00,
2013-05-13 21:36:00,62.7,43.3,30.02,SE,144,2.0,4.0,49,0.00,,,0.00,VWS V14.01,2013-05-14 02:36:00,
2013-05-13 21:41:00,62.7,43.8,30.02,SE,145,0.0,4.0,50,0.00,,,0.00,VWS V14.01,2013-05-14 02:41:00,
2013-05-13 21:46:00,62.6,44.2,30.02,SSE,150,0.0,4.0,51,0.00,,,0.00,VWS V14.01,2013-05-14 02:46:00,
2013-05-13 21:51:00,62.5,43.6,30.02,SSE,150,0.0,4.0,50,0.00,,,0.00,VWS V14.01,2013-05-14 02:51:00,
2013-05-13 21:56:00,62.4,43.5,30.02,SSE,150,0.0,4.0,50,0.00,,,0.00,VWS V14.01,2013-05-14 02:56:00,
2013-05-13 22:00:00,64.0,43.9,30.02,ESE,123,0.0,4.0,48,0.00,,,0.00,VWS V14.01,2013-05-14 03:00:00,
2013-05-13 22:01:00,62.5,44.2,30.02,SSE,150,0.0,0.0,51,0.00,,,0.00,VWS V14.01,2013-05-14 03:01:00,
2013-05-13 22:06:00,62.5,43.6,30.02,SSE,147,0.0,2.0,50,0.00,,,0.00,VWS V14.01,2013-05-14 03:06:00,
2013-05-13 22:11:00,62.5,43.6,30.02,SSE,147,0.0,2.0,50,0.00,,,0.00,VWS V14.01,2013-05-14 03:11:00,
2013-05-13 22:16:00,62.4,44.0,30.02,SSE,147,0.0,2.0,51,0.00,,,0.00,VWS V14.01,2013-05-14 03:16:00,
2013-05-13 22:21:00,62.3,44.0,30.02,SSE,147,0.0,2.0,51,0.00,,,0.00,VWS V14.01,2013-05-14 03:21:00,
2013-05-13 22:26:00,62.2,43.9,30.01,SSE,147,0.0,2.0,51,0.00,,,0.00,VWS V14.01,2013-05-14 03:26:00,
2013-05-13 22:30:00,62.9,44.0,30.02,ESE,123,0.0,2.0,50,0.00,,,0.00,VWS V14.01,2013-05-14 03:30:00,
2013-05-13 22:31:00,62.0,44.2,30.01,SSE,148,0.0,1.0,52,0.00,,,0.00,VWS V14.01,2013-05-14 03:31:00,
2013-05-13 22:36:00,61.8,44.0,30.01,SSE,148,0.0,1.0,52,0.00,,,0.00,VWS V14.01,2013-05-14 03:36:00,
2013-05-13 22:41:00,61.6,43.8,30.01,SSE,151,0.0,2.0,52,0.00,,,0.00,VWS V14.01,2013-05-14 03:41:00,
2013-05-13 22:47:00,61.5,44.2,30.01,SSE,151,0.0,2.0,53,0.00,,,0.00,VWS V14.01,2013-05-14 03:47:00,
2013-05-13 22:52:00,61.4,44.6,30.01,SSE,151,2.0,2.0,54,0.00,,,0.00,VWS V14.01,2013-05-14 03:52:00,
2013-05-13 22:57:00,61.2,44.4,30.01,SSE,151,0.0,2.0,54,0.00,,,0.00,VWS V14.01,2013-05-14 03:57:00,
2013-05-13 23:00:00,62.5,44.2,30.02,SSE,150,0.0,4.0,51,0.00,,,0.00,VWS V14.01,2013-05-14 04:00:00,
2013-05-13 23:02:00,60.9,44.6,30.01,SSE,151,0.0,0.0,55,0.00,,,0.00,VWS V14.01,2013-05-14 04:02:00,
2013-05-13 23:07:00,60.7,44.5,30.00,SSE,151,0.0,2.0,55,0.00,,,0.00,VWS V14.01,2013-05-14 04:07:00,
2013-05-13 23:12:00,60.6,44.8,30.00,SSE,151,0.0,2.0,56,0.00,,,0.00,VWS V14.01,2013-05-14 04:12:00,
2013-05-13 23:17:00,60.6,45.3,30.00,SSE,154,0.0,4.0,57,0.00,,,0.00,VWS V14.01,2013-05-14 04:17:00,
2013-05-13 23:22:00,60.7,44.5,30.00,SSE,163,0.0,4.0,55,0.00,,,0.00,VWS V14.01,2013-05-14 04:22:00,
2013-05-13 23:27:00,60.9,44.2,29.99,SSE,163,0.0,4.0,54,0.00,,,0.00,VWS V14.01,2013-05-14 04:27:00,
2013-05-13 23:30:00,62.0,44.2,30.01,SSE,148,1.0,2.0,52,0.00,,,0.00,VWS V14.01,2013-05-14 04:30:00,
2013-05-13 23:32:00,61.0,44.7,29.99,SSE,164,0.0,0.0,55,0.00,,,0.00,VWS V14.01,2013-05-14 04:32:00,
2013-05-13 23:37:00,61.0,44.2,29.99,SSE,164,0.0,1.0,54,0.00,,,0.00,VWS V14.01,2013-05-14 04:37:00,
2013-05-13 23:42:00,61.0,44.7,29.99,SSE,164,0.0,2.0,55,0.00,,,0.00,VWS V14.01,2013-05-14 04:42:00,
2013-05-13 23:47:00,61.0,44.2,29.99,SSE,167,1.0,2.0,54,0.00,,,0.00,VWS V14.01,2013-05-14 04:47:00,
2013-05-13 23:52:00,61.1,44.8,29.99,SSE,167,0.0,2.0,55,0.00,,,0.00,VWS V14.01,2013-05-14 04:52:00,
2013-05-13 23:57:00,61.2,44.4,29.99,SSE,167,0.0,2.0,54,0.00,,,0.00,VWS V14.01,2013-05-14 04:57:00,